sensor_id;sensor_type;location;lat;lon;timestamp;pressure;altitude;pressure_sealevel;temperature;humidity
16738;BME280;17906;47.684;10.806;2023-04-26T00:00:34;59087.34;;;-146.04;100.00
16738;BME280;17906;47.684;10.806;2023-04-26T00:03:01;59087.34;;;-146.04;100.00
16738;BME280;17906;47.684;10.806;2023-04-26T00:05:28;59087.34;;;-146.04;100.00
16738;BME280;17906;47.684;10.806;2023-04-26T00:07:56;59087.34;;;-146.04;100.00
16738;BME280;17906;47.684;10.806;2023-04-26T00:10:24;59087.34;;;-146.04;100.00
16738;BME280;17906;47.684;10.806;2023-04-26T00:12:50;59087.34;;;-146.04;100.00
16738;BME280;17906;47.684;10.806;2023-04-26T00:15:17;59087.34;;;-146.04;100.00
16738;BME280;17906;47.684;10.806;2023-04-26T00:17:43;59087.34;;;-146.04;100.00
16738;BME280;17906;47.684;10.806;2023-04-26T00:20:11;59087.34;;;-146.04;100.00
16738;BME280;17906;47.684;10.806;2023-04-26T00:22:37;59087.34;;;-146.04;100.00
16738;BME280;17906;47.684;10.806;2023-04-26T00:25:05;59087.34;;;-146.04;100.00
16738;BME280;17906;47.684;10.806;2023-04-26T00:27:33;59087.34;;;-146.04;100.00
16738;BME280;17906;47.684;10.806;2023-04-26T00:30:00;59087.34;;;-146.04;100.00
16738;BME280;17906;47.684;10.806;2023-04-26T00:32:26;59087.34;;;-146.04;100.00
16738;BME280;17906;47.684;10.806;2023-04-26T00:34:53;59087.34;;;-146.04;100.00
16738;BME280;17906;47.684;10.806;2023-04-26T00:37:19;59087.34;;;-146.04;100.00
16738;BME280;17906;47.684;10.806;2023-04-26T00:39:47;59087.34;;;-146.04;100.00
16738;BME280;17906;47.684;10.806;2023-04-26T00:42:14;59087.34;;;-146.04;100.00
16738;BME280;17906;47.684;10.806;2023-04-26T00:44:42;59087.34;;;-146.04;100.00
16738;BME280;17906;47.684;10.806;2023-04-26T00:47:08;59087.34;;;-146.04;100.00
16738;BME280;17906;47.684;10.806;2023-04-26T00:49:35;59087.34;;;-146.04;100.00
16738;BME280;17906;47.684;10.806;2023-04-26T00:52:02;59087.34;;;-146.04;100.00
16738;BME280;17906;47.684;10.806;2023-04-26T00:54:28;59087.34;;;-146.04;100.00
16738;BME280;17906;47.684;10.806;2023-04-26T00:56:55;59087.34;;;-146.04;100.00
16738;BME280;17906;47.684;10.806;2023-04-26T00:59:22;59087.34;;;-146.04;100.00
16738;BME280;17906;47.684;10.806;2023-04-26T01:01:50;59087.34;;;-146.04;100.00
16738;BME280;17906;47.684;10.806;2023-04-26T01:04:17;59087.34;;;-146.04;100.00
16738;BME280;17906;47.684;10.806;2023-04-26T01:06:43;59087.34;;;-146.04;100.00
16738;BME280;17906;47.684;10.806;2023-04-26T01:09:10;59087.34;;;-146.04;100.00
16738;BME280;17906;47.684;10.806;2023-04-26T01:11:41;59087.34;;;-146.04;100.00
16738;BME280;17906;47.684;10.806;2023-04-26T01:14:09;59087.34;;;-146.04;100.00
16738;BME280;17906;47.684;10.806;2023-04-26T01:16:35;59087.34;;;-146.04;100.00
16738;BME280;17906;47.684;10.806;2023-04-26T01:19:10;59087.34;;;-146.04;100.00
16738;BME280;17906;47.684;10.806;2023-04-26T01:21:37;59087.34;;;-146.04;100.00
16738;BME280;17906;47.684;10.806;2023-04-26T01:24:06;59087.34;;;-146.04;100.00
16738;BME280;17906;47.684;10.806;2023-04-26T01:26:34;59087.34;;;-146.04;100.00
16738;BME280;17906;47.684;10.806;2023-04-26T01:29:12;59087.34;;;-146.04;100.00
16738;BME280;17906;47.684;10.806;2023-04-26T01:31:38;59087.34;;;-146.04;100.00
16738;BME280;17906;47.684;10.806;2023-04-26T01:34:05;59087.34;;;-146.04;100.00
16738;BME280;17906;47.684;10.806;2023-04-26T01:36:31;59087.34;;;-146.04;100.00
16738;BME280;17906;47.684;10.806;2023-04-26T01:38:58;59087.34;;;-146.04;100.00
16738;BME280;17906;47.684;10.806;2023-04-26T01:41:26;59087.34;;;-146.04;100.00
16738;BME280;17906;47.684;10.806;2023-04-26T01:43:52;59087.34;;;-146.04;100.00
16738;BME280;17906;47.684;10.806;2023-04-26T01:46:20;59087.34;;;-146.04;100.00
16738;BME280;17906;47.684;10.806;2023-04-26T01:48:46;59087.34;;;-146.04;100.00
16738;BME280;17906;47.684;10.806;2023-04-26T01:51:13;59087.34;;;-146.04;100.00
16738;BME280;17906;47.684;10.806;2023-04-26T01:53:40;59087.34;;;-146.04;100.00
16738;BME280;17906;47.684;10.806;2023-04-26T01:56:07;59087.34;;;-146.04;100.00
16738;BME280;17906;47.684;10.806;2023-04-26T01:58:35;59087.34;;;-146.04;100.00
16738;BME280;17906;47.684;10.806;2023-04-26T02:01:04;59087.34;;;-146.04;100.00
16738;BME280;17906;47.684;10.806;2023-04-26T02:03:31;59087.34;;;-146.04;100.00
16738;BME280;17906;47.684;10.806;2023-04-26T02:05:58;59087.34;;;-146.04;100.00
16738;BME280;17906;47.684;10.806;2023-04-26T02:08:25;59087.34;;;-146.04;100.00
16738;BME280;17906;47.684;10.806;2023-04-26T02:10:51;59087.34;;;-146.04;100.00
16738;BME280;17906;47.684;10.806;2023-04-26T02:13:19;59087.34;;;-146.04;100.00
16738;BME280;17906;47.684;10.806;2023-04-26T02:15:47;59087.34;;;-146.04;100.00
16738;BME280;17906;47.684;10.806;2023-04-26T02:18:15;59087.34;;;-146.04;100.00
16738;BME280;17906;47.684;10.806;2023-04-26T02:20:42;59087.34;;;-146.04;100.00
16738;BME280;17906;47.684;10.806;2023-04-26T02:23:10;59087.34;;;-146.04;100.00
16738;BME280;17906;47.684;10.806;2023-04-26T02:25:38;59087.34;;;-146.04;100.00
16738;BME280;17906;47.684;10.806;2023-04-26T02:28:06;59087.34;;;-146.04;100.00
16738;BME280;17906;47.684;10.806;2023-04-26T02:30:32;59087.34;;;-146.04;100.00
16738;BME280;17906;47.684;10.806;2023-04-26T02:33:00;59087.34;;;-146.04;100.00
16738;BME280;17906;47.684;10.806;2023-04-26T02:35:27;59087.34;;;-146.04;100.00
16738;BME280;17906;47.684;10.806;2023-04-26T02:37:54;59087.34;;;-146.04;100.00
16738;BME280;17906;47.684;10.806;2023-04-26T02:40:20;59087.34;;;-146.04;100.00
16738;BME280;17906;47.684;10.806;2023-04-26T02:42:47;59087.34;;;-146.04;100.00
16738;BME280;17906;47.684;10.806;2023-04-26T02:45:14;59087.34;;;-146.04;100.00
16738;BME280;17906;47.684;10.806;2023-04-26T02:47:40;59087.34;;;-146.04;100.00
16738;BME280;17906;47.684;10.806;2023-04-26T02:50:09;59087.34;;;-146.04;100.00
16738;BME280;17906;47.684;10.806;2023-04-26T02:52:35;59087.34;;;-146.04;100.00
16738;BME280;17906;47.684;10.806;2023-04-26T02:55:02;59087.34;;;-146.04;100.00
16738;BME280;17906;47.684;10.806;2023-04-26T02:57:29;59087.34;;;-146.04;100.00
16738;BME280;17906;47.684;10.806;2023-04-26T02:59:56;59087.34;;;-146.04;100.00
16738;BME280;17906;47.684;10.806;2023-04-26T03:02:23;59087.34;;;-146.04;100.00
16738;BME280;17906;47.684;10.806;2023-04-26T03:04:50;59087.34;;;-146.04;100.00
16738;BME280;17906;47.684;10.806;2023-04-26T03:07:18;59087.34;;;-146.04;100.00
16738;BME280;17906;47.684;10.806;2023-04-26T03:09:44;59087.34;;;-146.04;100.00
16738;BME280;17906;47.684;10.806;2023-04-26T03:12:11;59087.34;;;-146.04;100.00
16738;BME280;17906;47.684;10.806;2023-04-26T03:14:38;59087.34;;;-146.04;100.00
16738;BME280;17906;47.684;10.806;2023-04-26T03:17:04;59087.34;;;-146.04;100.00
16738;BME280;17906;47.684;10.806;2023-04-26T03:19:31;59087.34;;;-146.04;100.00
16738;BME280;17906;47.684;10.806;2023-04-26T03:21:57;59087.34;;;-146.04;100.00
16738;BME280;17906;47.684;10.806;2023-04-26T03:24:25;59087.34;;;-146.04;100.00
16738;BME280;17906;47.684;10.806;2023-04-26T03:26:52;59087.34;;;-146.04;100.00
16738;BME280;17906;47.684;10.806;2023-04-26T03:29:19;59087.34;;;-146.04;100.00
16738;BME280;17906;47.684;10.806;2023-04-26T03:31:45;59087.34;;;-146.04;100.00
16738;BME280;17906;47.684;10.806;2023-04-26T03:34:12;59087.34;;;-146.04;100.00
16738;BME280;17906;47.684;10.806;2023-04-26T03:36:38;59087.34;;;-146.04;100.00
16738;BME280;17906;47.684;10.806;2023-04-26T03:39:05;59087.34;;;-146.04;100.00
16738;BME280;17906;47.684;10.806;2023-04-26T03:41:33;59087.34;;;-146.04;100.00
16738;BME280;17906;47.684;10.806;2023-04-26T03:44:01;59087.34;;;-146.04;100.00
16738;BME280;17906;47.684;10.806;2023-04-26T03:46:27;59087.34;;;-146.04;100.00
16738;BME280;17906;47.684;10.806;2023-04-26T03:48:54;59087.34;;;-146.04;100.00
16738;BME280;17906;47.684;10.806;2023-04-26T03:51:20;59087.34;;;-146.04;100.00
16738;BME280;17906;47.684;10.806;2023-04-26T03:53:47;59087.34;;;-146.04;100.00
16738;BME280;17906;47.684;10.806;2023-04-26T03:56:14;59087.34;;;-146.04;100.00
16738;BME280;17906;47.684;10.806;2023-04-26T03:58:42;59087.34;;;-146.04;100.00
16738;BME280;17906;47.684;10.806;2023-04-26T04:01:09;59087.34;;;-146.04;100.00
16738;BME280;17906;47.684;10.806;2023-04-26T04:03:35;59087.34;;;-146.04;100.00
16738;BME280;17906;47.684;10.806;2023-04-26T04:06:02;59087.34;;;-146.04;100.00
16738;BME280;17906;47.684;10.806;2023-04-26T04:08:29;59087.34;;;-146.04;100.00
16738;BME280;17906;47.684;10.806;2023-04-26T04:10:56;59087.34;;;-146.04;100.00
16738;BME280;17906;47.684;10.806;2023-04-26T04:13:22;59087.34;;;-146.04;100.00
16738;BME280;17906;47.684;10.806;2023-04-26T04:15:50;59087.34;;;-146.04;100.00
16738;BME280;17906;47.684;10.806;2023-04-26T04:18:17;59087.34;;;-146.04;100.00
16738;BME280;17906;47.684;10.806;2023-04-26T04:20:44;59087.34;;;-146.04;100.00
16738;BME280;17906;47.684;10.806;2023-04-26T04:23:10;59087.34;;;-146.04;100.00
16738;BME280;17906;47.684;10.806;2023-04-26T04:25:37;59087.34;;;-146.04;100.00
16738;BME280;17906;47.684;10.806;2023-04-26T04:28:04;59087.34;;;-146.04;100.00
16738;BME280;17906;47.684;10.806;2023-04-26T04:30:31;59087.34;;;-146.04;100.00
16738;BME280;17906;47.684;10.806;2023-04-26T04:32:59;59087.34;;;-146.04;100.00
16738;BME280;17906;47.684;10.806;2023-04-26T04:35:29;59087.34;;;-146.04;100.00
16738;BME280;17906;47.684;10.806;2023-04-26T04:37:57;59087.34;;;-146.04;100.00
16738;BME280;17906;47.684;10.806;2023-04-26T04:40:24;59087.34;;;-146.04;100.00
16738;BME280;17906;47.684;10.806;2023-04-26T04:42:51;59087.34;;;-146.04;100.00
16738;BME280;17906;47.684;10.806;2023-04-26T04:45:18;59087.34;;;-146.04;100.00
16738;BME280;17906;47.684;10.806;2023-04-26T04:47:45;59087.34;;;-146.04;100.00
16738;BME280;17906;47.684;10.806;2023-04-26T04:50:14;59087.34;;;-146.04;100.00
16738;BME280;17906;47.684;10.806;2023-04-26T04:52:40;59087.34;;;-146.04;100.00
16738;BME280;17906;47.684;10.806;2023-04-26T04:55:07;59087.34;;;-146.04;100.00
16738;BME280;17906;47.684;10.806;2023-04-26T04:57:34;59087.34;;;-146.04;100.00
16738;BME280;17906;47.684;10.806;2023-04-26T05:00:01;59087.34;;;-146.04;100.00
16738;BME280;17906;47.684;10.806;2023-04-26T05:02:34;59087.34;;;-146.04;100.00
16738;BME280;17906;47.684;10.806;2023-04-26T05:05:01;59087.34;;;-146.04;100.00
16738;BME280;17906;47.684;10.806;2023-04-26T05:07:30;59087.34;;;-146.04;100.00
16738;BME280;17906;47.684;10.806;2023-04-26T05:09:56;59087.34;;;-146.04;100.00
16738;BME280;17906;47.684;10.806;2023-04-26T05:12:23;59087.34;;;-146.04;100.00
16738;BME280;17906;47.684;10.806;2023-04-26T05:14:49;59087.34;;;-146.04;100.00
16738;BME280;17906;47.684;10.806;2023-04-26T05:17:16;59087.34;;;-146.04;100.00
16738;BME280;17906;47.684;10.806;2023-04-26T05:19:43;59087.34;;;-146.04;100.00
16738;BME280;17906;47.684;10.806;2023-04-26T05:22:10;59087.34;;;-146.04;100.00
16738;BME280;17906;47.684;10.806;2023-04-26T05:24:38;59087.34;;;-146.04;100.00
16738;BME280;17906;47.684;10.806;2023-04-26T05:27:05;59087.34;;;-146.04;100.00
16738;BME280;17906;47.684;10.806;2023-04-26T05:29:32;59087.34;;;-146.04;100.00
16738;BME280;17906;47.684;10.806;2023-04-26T05:31:58;59087.34;;;-146.04;100.00
16738;BME280;17906;47.684;10.806;2023-04-26T05:34:25;59087.34;;;-146.04;100.00
16738;BME280;17906;47.684;10.806;2023-04-26T05:36:52;59087.34;;;-146.04;100.00
16738;BME280;17906;47.684;10.806;2023-04-26T05:39:18;59087.34;;;-146.04;100.00
16738;BME280;17906;47.684;10.806;2023-04-26T05:41:47;59087.34;;;-146.04;100.00
16738;BME280;17906;47.684;10.806;2023-04-26T05:44:13;59087.34;;;-146.04;100.00
16738;BME280;17906;47.684;10.806;2023-04-26T05:46:40;59087.34;;;-146.04;100.00
16738;BME280;17906;47.684;10.806;2023-04-26T05:49:07;59087.34;;;-146.04;100.00
16738;BME280;17906;47.684;10.806;2023-04-26T05:51:34;59087.34;;;-146.04;100.00
16738;BME280;17906;47.684;10.806;2023-04-26T05:54:00;59087.34;;;-146.04;100.00
16738;BME280;17906;47.684;10.806;2023-04-26T05:56:27;59087.34;;;-146.04;100.00
16738;BME280;17906;47.684;10.806;2023-04-26T05:58:55;59087.34;;;-146.04;100.00
16738;BME280;17906;47.684;10.806;2023-04-26T06:01:21;59087.34;;;-146.04;100.00
16738;BME280;17906;47.684;10.806;2023-04-26T06:03:49;59087.34;;;-146.04;100.00
16738;BME280;17906;47.684;10.806;2023-04-26T06:06:15;59087.34;;;-146.04;100.00
16738;BME280;17906;47.684;10.806;2023-04-26T06:08:42;59087.34;;;-146.04;100.00
16738;BME280;17906;47.684;10.806;2023-04-26T06:11:09;59087.34;;;-146.04;100.00
16738;BME280;17906;47.684;10.806;2023-04-26T06:13:35;59087.34;;;-146.04;100.00
16738;BME280;17906;47.684;10.806;2023-04-26T06:16:04;59087.34;;;-146.04;100.00
16738;BME280;17906;47.684;10.806;2023-04-26T06:18:31;59087.34;;;-146.04;100.00
16738;BME280;17906;47.684;10.806;2023-04-26T06:20:57;59087.34;;;-146.04;100.00
16738;BME280;17906;47.684;10.806;2023-04-26T06:23:24;59087.34;;;-146.04;100.00
16738;BME280;17906;47.684;10.806;2023-04-26T06:25:51;59087.34;;;-146.04;100.00
16738;BME280;17906;47.684;10.806;2023-04-26T06:28:17;59087.34;;;-146.04;100.00
16738;BME280;17906;47.684;10.806;2023-04-26T06:30:44;59087.34;;;-146.04;100.00
16738;BME280;17906;47.684;10.806;2023-04-26T06:33:12;59087.34;;;-146.04;100.00
16738;BME280;17906;47.684;10.806;2023-04-26T06:35:39;59087.34;;;-146.04;100.00
16738;BME280;17906;47.684;10.806;2023-04-26T06:38:06;59087.34;;;-146.04;100.00
16738;BME280;17906;47.684;10.806;2023-04-26T06:40:33;59087.34;;;-146.04;100.00
16738;BME280;17906;47.684;10.806;2023-04-26T06:43:01;59087.34;;;-146.04;100.00
16738;BME280;17906;47.684;10.806;2023-04-26T06:45:28;59087.34;;;-146.04;100.00
16738;BME280;17906;47.684;10.806;2023-04-26T06:47:55;59087.34;;;-146.04;100.00
16738;BME280;17906;47.684;10.806;2023-04-26T06:50:26;59087.34;;;-146.04;100.00
16738;BME280;17906;47.684;10.806;2023-04-26T06:52:52;59087.34;;;-146.04;100.00
16738;BME280;17906;47.684;10.806;2023-04-26T06:55:19;59087.34;;;-146.04;100.00
16738;BME280;17906;47.684;10.806;2023-04-26T06:57:45;59087.34;;;-146.04;100.00
16738;BME280;17906;47.684;10.806;2023-04-26T07:00:13;59087.34;;;-146.04;100.00
16738;BME280;17906;47.684;10.806;2023-04-26T07:02:40;59087.34;;;-146.04;100.00
16738;BME280;17906;47.684;10.806;2023-04-26T07:05:07;59087.34;;;-146.04;100.00
16738;BME280;17906;47.684;10.806;2023-04-26T07:07:34;59087.34;;;-146.04;100.00
16738;BME280;17906;47.684;10.806;2023-04-26T07:10:01;59087.34;;;-146.04;100.00
16738;BME280;17906;47.684;10.806;2023-04-26T07:12:28;59087.34;;;-146.04;100.00
16738;BME280;17906;47.684;10.806;2023-04-26T07:14:55;59087.34;;;-146.04;100.00
16738;BME280;17906;47.684;10.806;2023-04-26T07:17:21;59087.34;;;-146.04;100.00
16738;BME280;17906;47.684;10.806;2023-04-26T07:19:48;59087.34;;;-146.04;100.00
16738;BME280;17906;47.684;10.806;2023-04-26T07:22:14;59087.34;;;-146.04;100.00
16738;BME280;17906;47.684;10.806;2023-04-26T07:24:42;59087.34;;;-146.04;100.00
16738;BME280;17906;47.684;10.806;2023-04-26T07:27:09;59087.34;;;-146.04;100.00
16738;BME280;17906;47.684;10.806;2023-04-26T07:29:38;59087.34;;;-146.04;100.00
16738;BME280;17906;47.684;10.806;2023-04-26T07:32:05;59087.34;;;-146.04;100.00
16738;BME280;17906;47.684;10.806;2023-04-26T07:34:31;59087.34;;;-146.04;100.00
16738;BME280;17906;47.684;10.806;2023-04-26T07:36:58;59087.34;;;-146.04;100.00
16738;BME280;17906;47.684;10.806;2023-04-26T07:39:25;59087.34;;;-146.04;100.00
16738;BME280;17906;47.684;10.806;2023-04-26T07:41:53;59087.34;;;-146.04;100.00
16738;BME280;17906;47.684;10.806;2023-04-26T07:44:19;59087.34;;;-146.04;100.00
16738;BME280;17906;47.684;10.806;2023-04-26T07:46:46;59087.34;;;-146.04;100.00
16738;BME280;17906;47.684;10.806;2023-04-26T07:49:13;59087.34;;;-146.04;100.00
16738;BME280;17906;47.684;10.806;2023-04-26T07:51:42;59087.34;;;-146.04;100.00
16738;BME280;17906;47.684;10.806;2023-04-26T07:54:09;59087.34;;;-146.04;100.00
16738;BME280;17906;47.684;10.806;2023-04-26T07:56:35;59087.34;;;-146.04;100.00
16738;BME280;17906;47.684;10.806;2023-04-26T07:59:03;59087.34;;;-146.04;100.00
16738;BME280;17906;47.684;10.806;2023-04-26T08:01:30;59087.34;;;-146.04;100.00
16738;BME280;17906;47.684;10.806;2023-04-26T08:03:56;59087.34;;;-146.04;100.00
16738;BME280;17906;47.684;10.806;2023-04-26T08:06:23;59087.34;;;-146.04;100.00
16738;BME280;17906;47.684;10.806;2023-04-26T08:08:49;59087.34;;;-146.04;100.00
16738;BME280;17906;47.684;10.806;2023-04-26T08:11:17;59087.34;;;-146.04;100.00
16738;BME280;17906;47.684;10.806;2023-04-26T08:13:44;59087.34;;;-146.04;100.00
16738;BME280;17906;47.684;10.806;2023-04-26T08:16:12;93182.38;;;8.08;71.03
16738;BME280;17906;47.684;10.806;2023-04-26T08:18:39;93185.78;;;8.04;73.25
16738;BME280;17906;47.684;10.806;2023-04-26T08:21:05;93176.03;;;8.38;70.82
16738;BME280;17906;47.684;10.806;2023-04-26T08:23:32;93175.66;;;8.23;69.41
16738;BME280;17906;47.684;10.806;2023-04-26T08:26:00;93177.84;;;7.79;69.31
16738;BME280;17906;47.684;10.806;2023-04-26T08:28:27;93177.72;;;7.74;72.37
16738;BME280;17906;47.684;10.806;2023-04-26T08:30:53;93177.75;;;7.85;68.85
16738;BME280;17906;47.684;10.806;2023-04-26T08:33:21;93182.16;;;7.56;68.63
16738;BME280;17906;47.684;10.806;2023-04-26T08:35:48;93182.88;;;7.22;69.07
16738;BME280;17906;47.684;10.806;2023-04-26T08:38:15;93186.31;;;6.99;70.65
16738;BME280;17906;47.684;10.806;2023-04-26T08:40:42;93185.03;;;6.72;69.81
16738;BME280;17906;47.684;10.806;2023-04-26T08:43:13;93185.09;;;6.65;72.72
16738;BME280;17906;47.684;10.806;2023-04-26T08:45:43;93182.78;;;6.50;72.26
16738;BME280;17906;47.684;10.806;2023-04-26T08:48:11;93188.91;;;6.39;73.58
16738;BME280;17906;47.684;10.806;2023-04-26T08:50:43;93183.56;;;6.14;81.08
16738;BME280;17906;47.684;10.806;2023-04-26T08:53:13;93185.72;;;6.05;81.12
16738;BME280;17906;47.684;10.806;2023-04-26T08:55:40;93185.91;;;6.04;80.38
16738;BME280;17906;47.684;10.806;2023-04-26T08:58:09;93183.22;;;6.04;78.77
16738;BME280;17906;47.684;10.806;2023-04-26T09:00:37;93183.34;;;6.16;79.57
16738;BME280;17906;47.684;10.806;2023-04-26T09:03:04;93179.50;;;6.30;78.54
16738;BME280;17906;47.684;10.806;2023-04-26T09:05:32;93184.66;;;6.31;78.00
16738;BME280;17906;47.684;10.806;2023-04-26T09:08:01;93187.47;;;6.18;76.81
16738;BME280;17906;47.684;10.806;2023-04-26T09:10:29;93176.13;;;6.34;74.82
16738;BME280;17906;47.684;10.806;2023-04-26T09:12:57;93185.78;;;5.99;75.76
16738;BME280;17906;47.684;10.806;2023-04-26T09:15:24;93181.97;;;6.31;76.84
16738;BME280;17906;47.684;10.806;2023-04-26T09:17:51;93192.56;;;6.45;71.84
16738;BME280;17906;47.684;10.806;2023-04-26T09:20:21;93178.41;;;6.67;73.96
16738;BME280;17906;47.684;10.806;2023-04-26T09:22:48;93180.13;;;6.80;73.27
16738;BME280;17906;47.684;10.806;2023-04-26T09:25:18;93175.84;;;6.91;71.87
16738;BME280;17906;47.684;10.806;2023-04-26T09:27:45;93176.44;;;7.23;72.24
16738;BME280;17906;47.684;10.806;2023-04-26T09:30:13;93171.28;;;7.86;70.73
16738;BME280;17906;47.684;10.806;2023-04-26T09:32:50;93167.22;;;8.31;68.88
16738;BME280;17906;47.684;10.806;2023-04-26T09:35:21;93174.63;;;8.12;66.86
16738;BME280;17906;47.684;10.806;2023-04-26T09:37:51;93175.16;;;7.79;65.65
16738;BME280;17906;47.684;10.806;2023-04-26T09:40:20;93179.31;;;7.93;67.24
16738;BME280;17906;47.684;10.806;2023-04-26T09:42:55;93179.63;;;7.85;69.03
16738;BME280;17906;47.684;10.806;2023-04-26T09:45:22;93176.94;;;7.85;68.15
16738;BME280;17906;47.684;10.806;2023-04-26T09:47:49;93169.34;;;7.94;66.29
16738;BME280;17906;47.684;10.806;2023-04-26T09:50:24;93176.88;;;8.03;67.59
16738;BME280;17906;47.684;10.806;2023-04-26T09:52:51;93177.19;;;8.19;70.47
16738;BME280;17906;47.684;10.806;2023-04-26T09:55:26;93170.03;;;8.48;64.31
16738;BME280;17906;47.684;10.806;2023-04-26T09:57:53;93169.38;;;9.38;68.05
16738;BME280;17906;47.684;10.806;2023-04-26T10:00:20;93148.44;;;10.29;63.16
16738;BME280;17906;47.684;10.806;2023-04-26T10:02:48;93153.22;;;10.60;59.19
16738;BME280;17906;47.684;10.806;2023-04-26T10:05:14;93153.22;;;10.60;59.19
16738;BME280;17906;47.684;10.806;2023-04-26T10:07:41;93167.22;;;9.51;58.03
16738;BME280;17906;47.684;10.806;2023-04-26T10:10:09;93167.16;;;8.66;62.36
16738;BME280;17906;47.684;10.806;2023-04-26T10:12:39;93170.28;;;8.34;64.98
16738;BME280;17906;47.684;10.806;2023-04-26T10:15:08;93164.53;;;8.07;64.13
16738;BME280;17906;47.684;10.806;2023-04-26T10:17:35;93167.94;;;8.03;66.53
16738;BME280;17906;47.684;10.806;2023-04-26T10:20:03;93166.72;;;7.75;69.58
16738;BME280;17906;47.684;10.806;2023-04-26T10:22:38;93168.38;;;7.35;71.63
16738;BME280;17906;47.684;10.806;2023-04-26T10:25:08;93174.44;;;7.18;74.37
16738;BME280;17906;47.684;10.806;2023-04-26T10:27:53;93165.81;;;6.98;75.02
16738;BME280;17906;47.684;10.806;2023-04-26T10:30:20;93163.53;;;6.83;71.43
16738;BME280;17906;47.684;10.806;2023-04-26T10:33:15;93166.97;;;6.72;76.32
16738;BME280;17906;47.684;10.806;2023-04-26T10:36:05;93158.41;;;6.93;74.54
16738;BME280;17906;47.684;10.806;2023-04-26T10:38:32;93152.16;;;7.23;75.15
16738;BME280;17906;47.684;10.806;2023-04-26T10:41:28;93146.25;;;7.56;68.87
16738;BME280;17906;47.684;10.806;2023-04-26T10:43:57;93139.59;;;8.40;70.26
16738;BME280;17906;47.684;10.806;2023-04-26T10:46:33;93136.19;;;8.57;69.15
16738;BME280;17906;47.684;10.806;2023-04-26T10:49:11;93136.78;;;8.87;68.13
16738;BME280;17906;47.684;10.806;2023-04-26T10:51:38;93133.31;;;9.03;65.47
16738;BME280;17906;47.684;10.806;2023-04-26T10:54:05;93133.66;;;8.79;65.85
16738;BME280;17906;47.684;10.806;2023-04-26T10:56:51;93143.63;;;8.38;65.07
16738;BME280;17906;47.684;10.806;2023-04-26T10:59:22;93147.00;;;8.33;67.11
16738;BME280;17906;47.684;10.806;2023-04-26T11:01:51;93145.00;;;8.40;64.98
16738;BME280;17906;47.684;10.806;2023-04-26T11:04:17;93139.50;;;8.35;65.72
16738;BME280;17906;47.684;10.806;2023-04-26T11:06:48;93131.44;;;8.12;64.34
16738;BME280;17906;47.684;10.806;2023-04-26T11:09:34;93134.34;;;8.10;62.80
16738;BME280;17906;47.684;10.806;2023-04-26T11:12:05;93134.00;;;8.19;60.53
16738;BME280;17906;47.684;10.806;2023-04-26T11:14:33;93129.97;;;8.33;59.99
16738;BME280;17906;47.684;10.806;2023-04-26T11:17:02;93125.81;;;8.65;58.74
16738;BME280;17906;47.684;10.806;2023-04-26T11:19:29;93116.56;;;8.90;60.18
16738;BME280;17906;47.684;10.806;2023-04-26T11:21:55;93118.06;;;8.97;58.37
16738;BME280;17906;47.684;10.806;2023-04-26T11:24:26;93123.13;;;9.22;60.07
16738;BME280;17906;47.684;10.806;2023-04-26T11:26:53;93115.78;;;9.06;64.29
16738;BME280;17906;47.684;10.806;2023-04-26T11:29:20;93117.06;;;8.75;62.92
16738;BME280;17906;47.684;10.806;2023-04-26T11:31:52;93109.06;;;8.40;64.80
16738;BME280;17906;47.684;10.806;2023-04-26T11:34:22;93116.91;;;8.93;64.26
16738;BME280;17906;47.684;10.806;2023-04-26T11:36:50;93107.19;;;8.81;61.29
16738;BME280;17906;47.684;10.806;2023-04-26T11:39:19;93110.19;;;8.67;63.14
16738;BME280;17906;47.684;10.806;2023-04-26T11:41:46;93111.03;;;8.56;60.65
16738;BME280;17906;47.684;10.806;2023-04-26T11:44:12;93104.38;;;8.47;61.01
16738;BME280;17906;47.684;10.806;2023-04-26T11:46:43;93114.97;;;8.37;62.02
16738;BME280;17906;47.684;10.806;2023-04-26T11:49:11;93113.31;;;8.36;61.00
16738;BME280;17906;47.684;10.806;2023-04-26T11:51:37;93106.84;;;8.49;59.52
16738;BME280;17906;47.684;10.806;2023-04-26T11:54:04;93118.13;;;8.22;62.18
16738;BME280;17906;47.684;10.806;2023-04-26T11:56:31;93117.78;;;8.19;64.37
16738;BME280;17906;47.684;10.806;2023-04-26T11:58:57;93123.56;;;8.10;63.30
16738;BME280;17906;47.684;10.806;2023-04-26T12:01:25;93115.44;;;7.87;61.52
16738;BME280;17906;47.684;10.806;2023-04-26T12:03:54;93118.28;;;8.15;61.39
16738;BME280;17906;47.684;10.806;2023-04-26T12:06:28;93122.25;;;8.36;64.99
16738;BME280;17906;47.684;10.806;2023-04-26T12:08:56;93119.13;;;8.68;57.10
16738;BME280;17906;47.684;10.806;2023-04-26T12:11:23;93125.06;;;8.82;60.42
16738;BME280;17906;47.684;10.806;2023-04-26T12:13:50;93119.06;;;9.08;54.90
16738;BME280;17906;47.684;10.806;2023-04-26T12:16:16;93109.19;;;9.59;58.06
16738;BME280;17906;47.684;10.806;2023-04-26T12:18:48;93103.88;;;10.20;55.42
16738;BME280;17906;47.684;10.806;2023-04-26T12:21:15;93107.50;;;10.47;49.85
16738;BME280;17906;47.684;10.806;2023-04-26T12:23:43;93093.22;;;10.52;51.82
16738;BME280;17906;47.684;10.806;2023-04-26T12:26:12;93095.47;;;10.60;50.21
16738;BME280;17906;47.684;10.806;2023-04-26T12:28:39;93097.22;;;10.71;50.52
16738;BME280;17906;47.684;10.806;2023-04-26T12:31:06;93099.16;;;10.10;53.36
16738;BME280;17906;47.684;10.806;2023-04-26T12:33:33;93101.81;;;9.88;52.60
16738;BME280;17906;47.684;10.806;2023-04-26T12:36:05;93106.63;;;9.69;54.35